Time;durP1;ratioP1;P1;durP2;ratioP2;P2;SDS_P1;SDS_P2;PMS_P1;PMS_P2;Temp;Humidity;BMP_temperature;BMP_pressure;BME280_temperature;BME280_humidity;BME280_pressure;Samples;Min_cycle;Max_cycle;Signal;HPM_P1;HPM_P2
2023/11/02 00:00:09;;;;;;;1.35;1.25;;;22.80;42.30;;;;;;6180851;23;20266;-39
2023/11/02 00:02:35;;;;;;;1.40;1.30;;;22.80;42.20;;;;;;6182341;23;20196;-39
2023/11/02 00:05:02;;;;;;;1.75;1.30;;;22.80;42.30;;;;;;6183572;23;20268;-39
2023/11/02 00:07:29;;;;;;;1.20;1.10;;;22.80;42.30;;;;;;6183343;23;20194;-39
2023/11/02 00:09:55;;;;;;;1.20;1.10;;;22.80;42.40;;;;;;6179076;23;20218;-39
2023/11/02 00:12:22;;;;;;;1.15;1.05;;;22.80;42.30;;;;;;6180674;23;20261;-39
2023/11/02 00:14:51;;;;;;;1.50;1.25;;;22.80;42.30;;;;;;6180055;23;20258;-37
2023/11/02 00:17:16;;;;;;;1.45;1.10;;;22.80;42.30;;;;;;6179468;23;20194;-39
2023/11/02 00:19:44;;;;;;;1.20;1.10;;;22.80;42.30;;;;;;6182323;23;20225;-40
2023/11/02 00:22:10;;;;;;;1.20;1.10;;;22.80;42.30;;;;;;6182563;23;20621;-40
2023/11/02 00:24:37;;;;;;;1.23;1.13;;;22.80;42.10;;;;;;6180102;23;20202;-38
2023/11/02 00:27:03;;;;;;;1.23;1.15;;;22.80;42.10;;;;;;6181880;23;20201;-39
2023/11/02 00:29:30;;;;;;;2.42;1.38;;;22.80;42.20;;;;;;6182030;23;20261;-40
2023/11/02 00:31:57;;;;;;;2.40;1.30;;;22.70;42.00;;;;;;6182825;23;20197;-39
2023/11/02 00:34:24;;;;;;;1.30;1.20;;;22.70;42.00;;;;;;6183105;23;20214;-35
2023/11/02 00:36:50;;;;;;;1.75;1.20;;;22.70;41.90;;;;;;6183160;23;20695;-38
2023/11/02 00:39:17;;;;;;;1.38;1.27;;;22.70;41.90;;;;;;6182854;23;20253;-38
2023/11/02 00:41:43;;;;;;;1.80;1.17;;;22.70;41.80;;;;;;6180442;23;20174;-38
2023/11/02 00:44:10;;;;;;;1.38;1.25;;;22.70;41.80;;;;;;6179274;23;20253;-37
2023/11/02 00:46:37;;;;;;;1.80;1.25;;;22.70;41.80;;;;;;6182312;23;20175;-38
2023/11/02 00:49:03;;;;;;;1.52;1.30;;;22.70;41.80;;;;;;6181058;23;20213;-40
2023/11/02 00:51:30;;;;;;;1.20;1.00;;;22.70;41.80;;;;;;6184038;23;20210;-39
2023/11/02 00:53:57;;;;;;;1.48;1.30;;;22.70;41.80;;;;;;6180840;23;20182;-39
2023/11/02 00:56:24;;;;;;;1.95;1.20;;;22.70;41.80;;;;;;6181337;23;20189;-39
2023/11/02 00:58:50;;;;;;;1.40;1.30;;;22.70;41.80;;;;;;6179048;23;20261;-39
2023/11/02 01:01:17;;;;;;;1.40;1.30;;;22.70;41.80;;;;;;6182237;23;20217;-39
2023/11/02 01:03:45;;;;;;;2.35;0.98;;;22.70;41.80;;;;;;6179831;23;20290;-39
2023/11/02 01:06:11;;;;;;;2.40;1.40;;;22.70;41.80;;;;;;6182937;23;20204;-39
2023/11/02 01:08:38;;;;;;;1.45;1.35;;;22.70;41.80;;;;;;6179061;23;20298;-40
2023/11/02 01:11:04;;;;;;;1.55;1.10;;;22.70;41.80;;;;;;6181280;23;20265;-38
2023/11/02 01:13:31;;;;;;;1.20;1.10;;;22.70;41.80;;;;;;6183010;23;20178;-38
2023/11/02 01:15:57;;;;;;;1.85;1.20;;;22.70;41.80;;;;;;6182959;23;20265;-39
2023/11/02 01:18:24;;;;;;;1.42;1.10;;;22.70;41.80;;;;;;6182941;23;20273;-39
2023/11/02 01:20:50;;;;;;;1.80;1.08;;;22.70;41.80;;;;;;6181390;23;20257;-39
2023/11/02 01:23:16;;;;;;;1.40;1.17;;;22.70;41.80;;;;;;6181668;23;20198;-38
2023/11/02 01:25:43;;;;;;;2.20;1.13;;;22.70;41.80;;;;;;6183176;23;20181;-38
2023/11/02 01:28:10;;;;;;;2.10;1.20;;;22.70;41.80;;;;;;6180400;23;20233;-37
2023/11/02 01:30:36;;;;;;;1.52;1.10;;;22.70;41.80;;;;;;6182723;23;20179;-37
2023/11/02 01:33:03;;;;;;;1.73;1.27;;;22.70;41.80;;;;;;6178316;23;20382;-36
2023/11/02 01:35:29;;;;;;;1.55;1.40;;;22.70;41.80;;;;;;6181154;23;20261;-35
2023/11/02 01:37:56;;;;;;;1.20;1.10;;;22.70;41.80;;;;;;6183219;23;20272;-38
2023/11/02 01:40:22;;;;;;;1.42;1.30;;;22.70;41.80;;;;;;6184178;23;20182;-39
2023/11/02 01:42:49;;;;;;;1.13;1.02;;;22.70;41.80;;;;;;6185092;23;20586;-39
2023/11/02 01:45:15;;;;;;;1.35;1.20;;;22.70;41.80;;;;;;6185604;23;20569;-38
2023/11/02 01:47:41;;;;;;;1.20;1.10;;;22.70;41.80;;;;;;6183604;23;20230;-38
2023/11/02 01:50:08;;;;;;;1.40;1.30;;;22.70;41.80;;;;;;6184545;23;20179;-39
2023/11/02 01:52:34;;;;;;;1.50;1.27;;;22.70;41.80;;;;;;6181850;23;20265;-38
2023/11/02 01:55:01;;;;;;;1.23;1.13;;;22.70;41.80;;;;;;6184949;23;20181;-40
2023/11/02 01:57:27;;;;;;;1.30;1.20;;;22.70;41.80;;;;;;6184410;23;20222;-39
2023/11/02 01:59:54;;;;;;;1.38;1.27;;;22.70;41.80;;;;;;6180205;23;20297;-38
2023/11/02 02:02:20;;;;;;;1.00;1.00;;;22.70;41.80;;;;;;6183183;23;20289;-37
2023/11/02 02:04:47;;;;;;;1.33;1.23;;;22.70;41.80;;;;;;6185446;23;20460;-39
2023/11/02 02:07:13;;;;;;;1.35;1.15;;;22.70;41.80;;;;;;6184558;23;20273;-39
2023/11/02 02:09:40;;;;;;;1.20;1.10;;;22.70;41.80;;;;;;6184084;23;20258;-39
2023/11/02 02:12:06;;;;;;;1.42;1.30;;;22.70;41.80;;;;;;6183288;23;20515;-39
2023/11/02 02:14:33;;;;;;;2.25;1.25;;;22.70;41.80;;;;;;6184240;23;20257;-40
2023/11/02 02:16:59;;;;;;;2.47;1.20;;;22.70;41.80;;;;;;6182780;23;20198;-38
2023/11/02 02:19:26;;;;;;;2.05;1.00;;;22.70;41.80;;;;;;6182079;23;20262;-39
2023/11/02 02:21:52;;;;;;;1.27;1.17;;;22.70;41.80;;;;;;6181813;23;20190;-38
2023/11/02 02:24:19;;;;;;;2.42;1.05;;;22.70;41.80;;;;;;6183290;23;20213;-39
2023/11/02 02:26:45;;;;;;;1.30;1.20;;;22.70;41.80;;;;;;6184200;23;20230;-38
2023/11/02 02:29:12;;;;;;;1.15;1.10;;;22.70;41.80;;;;;;6183973;23;20205;-39
2023/11/02 02:31:38;;;;;;;1.30;1.20;;;22.60;41.70;;;;;;6183780;23;20294;-39
2023/11/02 02:34:04;;;;;;;1.00;0.98;;;22.60;41.80;;;;;;6185178;23;20258;-39
2023/11/02 02:36:31;;;;;;;1.52;1.23;;;22.60;41.80;;;;;;6181197;23;20225;-39
2023/11/02 02:38:57;;;;;;;1.88;1.20;;;22.60;41.80;;;;;;6181820;23;20257;-39
2023/11/02 02:41:23;;;;;;;1.17;1.15;;;22.60;41.90;;;;;;6184085;23;20214;-39
2023/11/02 02:43:50;;;;;;;1.30;0.98;;;22.60;42.00;;;;;;6184858;23;20233;-38
2023/11/02 02:46:17;;;;;;;1.85;1.30;;;22.60;41.90;;;;;;6183523;23;20194;-39
2023/11/02 02:48:43;;;;;;;1.45;1.27;;;22.60;42.00;;;;;;6183491;23;20178;-39
2023/11/02 02:51:10;;;;;;;1.13;0.93;;;22.60;42.00;;;;;;6184730;23;20209;-40
2023/11/02 02:53:36;;;;;;;1.63;1.33;;;22.60;42.00;;;;;;6180891;23;20287;-38
2023/11/02 02:56:02;;;;;;;2.50;1.10;;;22.60;41.90;;;;;;6182603;23;20257;-39
2023/11/02 02:58:29;;;;;;;1.10;1.00;;;22.60;41.90;;;;;;6183814;23;20289;-39
2023/11/02 03:00:55;;;;;;;0.90;0.90;;;22.60;42.00;;;;;;6183566;23;20262;-37
2023/11/02 03:03:23;;;;;;;1.70;1.40;;;22.60;42.00;;;;;;6183046;23;20207;-39
2023/11/02 03:05:50;;;;;;;1.10;1.00;;;22.60;41.80;;;;;;6184950;23;20680;-39
2023/11/02 03:08:16;;;;;;;1.17;1.00;;;22.60;41.70;;;;;;6182928;23;20679;-39
2023/11/02 03:10:43;;;;;;;1.90;1.23;;;22.60;41.70;;;;;;6181848;23;20206;-38
2023/11/02 03:13:09;;;;;;;1.35;1.10;;;22.70;42.00;;;;;;6178408;23;20257;-39
2023/11/02 03:15:36;;;;;;;1.20;1.10;;;22.70;41.80;;;;;;6183824;23;20218;-38
2023/11/02 03:18:02;;;;;;;1.20;1.10;;;22.70;41.80;;;;;;6183642;23;20282;-39
2023/11/02 03:20:29;;;;;;;1.20;1.10;;;22.60;41.70;;;;;;6183831;23;20253;-39
2023/11/02 03:22:55;;;;;;;1.00;1.00;;;22.70;41.80;;;;;;6183966;23;20592;-39
2023/11/02 03:25:22;;;;;;;1.45;1.20;;;22.70;41.80;;;;;;6182647;23;20258;-37
2023/11/02 03:27:48;;;;;;;3.60;1.20;;;22.70;41.80;;;;;;6184224;23;20277;-38
2023/11/02 03:30:15;;;;;;;1.52;1.35;;;22.60;41.70;;;;;;6183946;23;20174;-38
2023/11/02 03:32:41;;;;;;;1.30;1.20;;;22.60;41.70;;;;;;6180938;23;20221;-38
2023/11/02 03:35:08;;;;;;;3.22;1.60;;;22.60;41.70;;;;;;6178435;23;20624;-39
2023/11/02 03:37:34;;;;;;;1.98;1.20;;;22.60;41.70;;;;;;6182546;23;20742;-39
2023/11/02 03:40:01;;;;;;;1.10;1.00;;;22.60;41.70;;;;;;6183392;23;20229;-39
2023/11/02 03:42:27;;;;;;;2.22;1.20;;;22.60;41.70;;;;;;6184495;23;20229;-39
2023/11/02 03:44:53;;;;;;;1.55;1.38;;;22.70;41.80;;;;;;6183692;23;20174;-37
2023/11/02 03:47:20;;;;;;;1.70;1.08;;;22.70;41.80;;;;;;6182016;23;20513;-39
2023/11/02 03:49:46;;;;;;;2.22;1.38;;;22.60;41.70;;;;;;6184082;23;20253;-39
2023/11/02 03:52:13;;;;;;;1.27;1.17;;;22.70;41.80;;;;;;6183945;23;20225;-39
2023/11/02 03:54:39;;;;;;;2.38;1.25;;;22.60;41.80;;;;;;6180543;23;20257;-39
2023/11/02 03:57:06;;;;;;;1.38;1.13;;;22.60;41.80;;;;;;6178896;23;21003;-39
2023/11/02 03:59:32;;;;;;;0.95;0.95;;;22.70;41.90;;;;;;6181774;23;20598;-39
2023/11/02 04:02:00;;;;;;;1.38;1.10;;;22.60;41.90;;;;;;6181575;23;20254;-39
2023/11/02 04:04:26;;;;;;;2.15;1.00;;;22.60;42.00;;;;;;6183053;23;20667;-39
2023/11/02 04:06:53;;;;;;;1.60;1.20;;;22.60;41.90;;;;;;6184207;23;20582;-38
2023/11/02 04:09:19;;;;;;;1.20;1.02;;;22.70;42.00;;;;;;6180994;23;20257;-39
2023/11/02 04:11:46;;;;;;;1.30;1.20;;;22.60;42.00;;;;;;6184470;23;20210;-37
2023/11/02 04:14:12;;;;;;;1.70;1.00;;;22.60;42.00;;;;;;6182879;23;20178;-39
2023/11/02 04:16:38;;;;;;;1.02;1.00;;;22.60;42.00;;;;;;6180397;23;20194;-39
2023/11/02 04:19:05;;;;;;;1.40;1.27;;;22.60;42.00;;;;;;6178197;23;20272;-38
2023/11/02 04:21:31;;;;;;;1.92;1.20;;;22.60;42.00;;;;;;6182203;23;20189;-38
2023/11/02 04:23:58;;;;;;;1.30;1.00;;;22.60;42.00;;;;;;6182950;23;20248;-38
2023/11/02 04:26:24;;;;;;;1.48;1.10;;;22.60;42.00;;;;;;6183232;23;20664;-39
2023/11/02 04:28:51;;;;;;;1.00;1.00;;;22.60;42.00;;;;;;6183064;23;20257;-39
2023/11/02 04:31:17;;;;;;;2.05;1.17;;;22.60;42.00;;;;;;6182281;23;20178;-38
2023/11/02 04:33:44;;;;;;;1.20;1.10;;;22.60;41.90;;;;;;6184199;23;20174;-38
2023/11/02 04:36:10;;;;;;;1.10;1.00;;;22.60;41.90;;;;;;6183766;23;20195;-38
2023/11/02 04:38:37;;;;;;;0.90;0.90;;;22.60;41.90;;;;;;6179794;23;20214;-39
2023/11/02 04:41:03;;;;;;;1.52;1.00;;;22.70;42.00;;;;;;6180832;23;20186;-39
2023/11/02 04:43:30;;;;;;;1.67;1.30;;;22.60;42.00;;;;;;6183000;23;20719;-37
2023/11/02 04:45:56;;;;;;;1.25;1.00;;;22.60;41.90;;;;;;6183268;23;20195;-35
2023/11/02 04:48:23;;;;;;;1.15;1.10;;;22.60;42.00;;;;;;6182772;23;20182;-39
2023/11/02 04:50:49;;;;;;;1.33;1.10;;;22.60;42.00;;;;;;6183140;23;20178;-39
2023/11/02 04:53:17;;;;;;;0.95;0.90;;;22.60;42.00;;;;;;6182998;23;20261;-39
2023/11/02 04:55:44;;;;;;;1.70;1.55;;;22.60;42.00;;;;;;6178943;23;20182;-38
2023/11/02 04:58:10;;;;;;;1.60;1.10;;;22.60;42.00;;;;;;6182712;23;20214;-39
2023/11/02 05:00:37;;;;;;;1.00;1.00;;;22.60;42.00;;;;;;6182000;23;20174;-38
2023/11/02 05:03:04;;;;;;;1.30;0.90;;;22.70;42.10;;;;;;6179968;23;20245;-38
2023/11/02 05:05:30;;;;;;;1.60;1.30;;;22.60;42.00;;;;;;6182870;23;20179;-39
2023/11/02 05:07:57;;;;;;;1.10;1.00;;;22.60;42.00;;;;;;6183745;23;20257;-34
2023/11/02 05:10:23;;;;;;;1.10;1.00;;;22.60;42.00;;;;;;6181906;23;20639;-39
2023/11/02 05:12:50;;;;;;;1.38;1.10;;;22.60;42.10;;;;;;6185312;23;20225;-38
2023/11/02 05:15:16;;;;;;;1.35;1.15;;;22.70;42.20;;;;;;6184301;23;20206;-39
2023/11/02 05:17:43;;;;;;;2.25;1.20;;;22.60;42.10;;;;;;6185227;23;20281;-39
2023/11/02 05:20:09;;;;;;;1.30;1.20;;;22.60;42.10;;;;;;6182554;23;20217;-39
2023/11/02 05:22:36;;;;;;;1.25;1.10;;;22.60;42.10;;;;;;6182454;23;20189;-38
2023/11/02 05:25:03;;;;;;;2.10;1.10;;;22.60;42.20;;;;;;6184699;23;20284;-38
2023/11/02 05:27:30;;;;;;;1.65;1.15;;;22.60;42.20;;;;;;6185853;23;20194;-38
2023/11/02 05:29:56;;;;;;;1.10;1.00;;;22.60;42.20;;;;;;6184464;23;20624;-39
2023/11/02 05:32:23;;;;;;;1.08;1.00;;;22.60;42.20;;;;;;6184081;23;20550;-39
2023/11/02 05:34:49;;;;;;;1.40;1.00;;;22.60;42.20;;;;;;6185718;23;20189;-39
2023/11/02 05:37:16;;;;;;;1.95;1.10;;;22.60;42.20;;;;;;6181538;23;20278;-39
2023/11/02 05:39:42;;;;;;;1.10;1.00;;;22.60;42.20;;;;;;6182396;23;20232;-38
2023/11/02 05:42:09;;;;;;;1.48;1.23;;;22.60;42.20;;;;;;6183587;23;20181;-36
2023/11/02 05:44:35;;;;;;;1.20;1.10;;;22.60;42.20;;;;;;6184258;23;20281;-39
2023/11/02 05:47:01;;;;;;;0.95;0.95;;;22.60;42.20;;;;;;6184556;23;20589;-38
2023/11/02 05:49:28;;;;;;;1.00;1.00;;;22.60;42.10;;;;;;6183445;23;20206;-39
2023/11/02 05:51:54;;;;;;;2.30;1.17;;;22.60;42.10;;;;;;6183579;23;20197;-40
2023/11/02 05:54:21;;;;;;;1.77;1.00;;;22.60;42.10;;;;;;6182371;23;20253;-39
2023/11/02 05:56:47;;;;;;;1.55;1.20;;;22.60;42.20;;;;;;6184125;23;20202;-39
2023/11/02 05:59:14;;;;;;;2.13;1.60;;;22.60;42.10;;;;;;6183441;23;20999;-39
2023/11/02 06:01:41;;;;;;;1.20;1.10;;;22.60;42.20;;;;;;6184379;23;20213;-38
2023/11/02 06:04:07;;;;;;;1.35;0.90;;;22.60;42.20;;;;;;6183580;23;20206;-39
2023/11/02 06:06:34;;;;;;;1.13;1.05;;;22.60;42.10;;;;;;6184452;23;20731;-39
2023/11/02 06:09:02;;;;;;;1.30;1.20;;;22.60;42.10;;;;;;6182852;23;20183;-38
2023/11/02 06:11:28;;;;;;;1.92;1.05;;;22.60;42.20;;;;;;6182861;23;20183;-37
2023/11/02 06:13:55;;;;;;;1.95;1.10;;;22.60;42.20;;;;;;6182180;23;20190;-38
2023/11/02 06:16:23;;;;;;;2.83;1.15;;;22.60;42.20;;;;;;6184094;23;20248;-39
2023/11/02 06:18:49;;;;;;;2.15;1.10;;;22.60;42.20;;;;;;6184332;23;20174;-39
2023/11/02 06:21:16;;;;;;;1.92;1.10;;;22.60;42.20;;;;;;6183297;23;20193;-39
2023/11/02 06:23:42;;;;;;;1.25;1.00;;;22.60;42.20;;;;;;6183529;23;20245;-39
2023/11/02 06:26:09;;;;;;;1.20;1.10;;;22.60;42.20;;;;;;6184544;23;20195;-39
2023/11/02 06:28:35;;;;;;;2.05;1.00;;;22.60;42.20;;;;;;6184187;23;20205;-39
2023/11/02 06:31:02;;;;;;;1.27;0.90;;;22.60;42.20;;;;;;6179867;23;20451;-38
2023/11/02 06:33:28;;;;;;;1.20;1.10;;;22.60;42.30;;;;;;6183600;23;20257;-38
2023/11/02 06:35:56;;;;;;;3.10;1.05;;;22.60;42.30;;;;;;6184612;23;20198;-39
2023/11/02 06:38:21;;;;;;;1.45;1.10;;;22.60;42.30;;;;;;6182595;23;20185;-38
2023/11/02 06:40:48;;;;;;;2.13;1.17;;;22.60;42.40;;;;;;6181860;23;20178;-40
2023/11/02 06:43:15;;;;;;;3.42;1.38;;;22.60;42.30;;;;;;6182012;23;20212;-39
2023/11/02 06:45:41;;;;;;;0.98;0.98;;;22.60;42.40;;;;;;6182376;23;20676;-39
2023/11/02 06:48:07;;;;;;;1.75;1.17;;;22.60;42.40;;;;;;6181485;23;20175;-37
2023/11/02 06:50:34;;;;;;;2.30;1.38;;;22.60;42.40;;;;;;6182031;23;20174;-39
2023/11/02 06:53:00;;;;;;;1.38;1.10;;;22.60;42.40;;;;;;6183777;23;20254;-38
2023/11/02 06:55:27;;;;;;;2.25;1.40;;;22.60;42.40;;;;;;6183278;23;20680;-38
2023/11/02 06:57:53;;;;;;;2.88;1.48;;;22.60;42.50;;;;;;6184063;23;20534;-38
2023/11/02 07:00:20;;;;;;;4.85;1.27;;;22.60;42.80;;;;;;6179741;23;20253;-39
2023/11/02 07:02:46;;;;;;;2.60;1.10;;;22.60;42.80;;;;;;6177754;23;20174;-40
2023/11/02 07:05:13;;;;;;;1.58;1.05;;;22.60;42.80;;;;;;6179777;23;20273;-40
2023/11/02 07:07:40;;;;;;;3.95;1.60;;;22.50;42.50;;;;;;6182856;23;20241;-39
2023/11/02 07:10:08;;;;;;;1.48;1.30;;;22.50;42.40;;;;;;6183019;23;20179;-40
2023/11/02 07:12:34;;;;;;;4.63;1.63;;;22.40;42.00;;;;;;6182067;23;20469;-39
2023/11/02 07:15:01;;;;;;;2.33;1.45;;;22.20;40.10;;;;;;6177305;23;20519;-41
2023/11/02 07:17:27;;;;;;;2.05;1.50;;;21.80;35.30;;;;;;6183043;23;20251;-39
2023/11/02 07:19:54;;;;;;;3.53;1.38;;;20.90;35.40;;;;;;6179733;23;20181;-38
2023/11/02 07:22:20;;;;;;;2.63;1.50;;;21.00;35.40;;;;;;6182376;23;20260;-38
2023/11/02 07:24:47;;;;;;;1.55;1.40;;;21.40;35.40;;;;;;6183438;23;20281;-39
2023/11/02 07:27:13;;;;;;;1.08;1.02;;;21.60;35.60;;;;;;6182110;23;20805;-38
2023/11/02 07:29:40;;;;;;;1.33;1.23;;;21.70;36.10;;;;;;6182722;23;20237;-38
2023/11/02 07:32:06;;;;;;;1.95;1.13;;;21.80;37.10;;;;;;6182307;23;20213;-39
2023/11/02 07:34:34;;;;;;;1.33;1.23;;;21.90;37.80;;;;;;6181886;23;20190;-38
2023/11/02 07:37:00;;;;;;;1.50;1.30;;;22.00;38.10;;;;;;6182018;23;20560;-39
2023/11/02 07:39:27;;;;;;;2.05;1.20;;;22.10;38.50;;;;;;6181653;23;20233;-38
2023/11/02 07:41:54;;;;;;;1.20;1.10;;;22.10;38.80;;;;;;6182281;23;20202;-38
2023/11/02 07:44:20;;;;;;;1.92;1.35;;;22.10;38.90;;;;;;6180273;23;20198;-39
2023/11/02 07:46:47;;;;;;;1.75;1.13;;;22.20;39.30;;;;;;6175454;23;20261;-40
2023/11/02 07:49:13;;;;;;;1.45;1.25;;;22.20;39.40;;;;;;6179540;23;20514;-34
2023/11/02 07:51:40;;;;;;;2.70;1.30;;;22.30;39.60;;;;;;6179970;23;20225;-33
2023/11/02 07:54:07;;;;;;;1.63;1.10;;;22.30;39.60;;;;;;6176656;23;20285;-41
2023/11/02 07:56:33;;;;;;;1.10;1.00;;;22.30;39.80;;;;;;6180515;23;20207;-42
2023/11/02 07:59:00;;;;;;;1.30;1.20;;;22.30;40.00;;;;;;6179572;23;20181;-42
2023/11/02 08:01:27;;;;;;;2.70;1.27;;;22.30;40.00;;;;;;6182415;23;20562;-41
2023/11/02 08:03:54;;;;;;;2.42;1.45;;;22.40;40.20;;;;;;6182660;23;20486;-42
2023/11/02 08:06:20;;;;;;;2.67;1.30;;;22.40;40.40;;;;;;6180062;23;20201;-40
2023/11/02 08:08:47;;;;;;;1.23;1.10;;;22.40;40.50;;;;;;6179935;23;20637;-37
2023/11/02 08:11:13;;;;;;;3.67;1.30;;;22.40;40.60;;;;;;6181159;23;20214;-42
2023/11/02 08:13:40;;;;;;;2.40;1.25;;;22.30;40.50;;;;;;6179904;23;20171;-43
2023/11/02 08:16:06;;;;;;;1.45;1.20;;;22.30;40.70;;;;;;6176616;23;20802;-42
2023/11/02 08:18:33;;;;;;;2.35;1.10;;;22.30;40.90;;;;;;6177711;23;20259;-42
2023/11/02 08:20:59;;;;;;;1.60;1.20;;;22.30;40.50;;;;;;6176368;23;20254;-42
2023/11/02 08:23:26;;;;;;;1.52;1.10;;;22.30;40.50;;;;;;6180150;23;20170;-42
2023/11/02 08:25:52;;;;;;;1.70;1.10;;;22.30;40.80;;;;;;6181520;23;21026;-42
2023/11/02 08:28:19;;;;;;;2.78;1.10;;;22.30;40.40;;;;;;6174787;23;20185;-42
2023/11/02 08:30:45;;;;;;;2.22;1.20;;;22.30;40.50;;;;;;6178406;23;20185;-40
2023/11/02 08:33:12;;;;;;;1.30;1.10;;;22.30;40.50;;;;;;6180515;23;20514;-41
2023/11/02 08:35:38;;;;;;;2.83;1.45;;;22.40;40.70;;;;;;6182016;23;20281;-42
2023/11/02 08:38:05;;;;;;;2.55;1.20;;;22.40;40.90;;;;;;6175481;23;20253;-42
2023/11/02 08:40:31;;;;;;;1.48;1.20;;;22.40;40.80;;;;;;6181093;23;20175;-42
2023/11/02 08:42:58;;;;;;;1.38;0.95;;;22.40;41.00;;;;;;6181362;23;20178;-42
2023/11/02 08:45:24;;;;;;;1.55;1.00;;;22.30;41.00;;;;;;6179978;23;20238;-42
2023/11/02 08:47:51;;;;;;;2.17;1.15;;;22.30;41.10;;;;;;6183023;23;20181;-42
2023/11/02 08:50:17;;;;;;;1.60;1.20;;;22.30;41.20;;;;;;6182765;23;20179;-42
2023/11/02 08:52:44;;;;;;;1.27;1.17;;;22.30;41.30;;;;;;6181426;23;20257;-38
2023/11/02 08:55:10;;;;;;;2.78;1.25;;;22.30;41.30;;;;;;6177639;23;20282;-40
2023/11/02 08:57:37;;;;;;;4.00;1.17;;;22.40;41.40;;;;;;6180233;23;20237;-40
2023/11/02 09:00:05;;;;;;;1.58;1.20;;;22.40;41.50;;;;;;6178201;23;20189;-41
2023/11/02 09:02:31;;;;;;;1.65;1.10;;;22.40;41.10;;;;;;6180649;23;20167;-42
2023/11/02 09:04:58;;;;;;;1.17;1.08;;;22.40;41.30;;;;;;6179999;23;20739;-38
2023/11/02 09:07:24;;;;;;;1.40;0.90;;;22.40;41.60;;;;;;6180271;23;20555;-35
2023/11/02 09:09:51;;;;;;;2.72;1.00;;;22.40;41.40;;;;;;6180244;23;20233;-38
2023/11/02 09:12:18;;;;;;;3.70;1.45;;;22.40;39.00;;;;;;6181241;23;20209;-37
2023/11/02 09:14:44;;;;;;;2.80;1.15;;;22.30;39.30;;;;;;6180082;23;20181;-41
2023/11/02 09:17:11;;;;;;;2.55;1.25;;;22.30;40.00;;;;;;6179404;23;20213;-38
2023/11/02 09:19:37;;;;;;;2.35;1.48;;;22.40;40.60;;;;;;6179533;23;20664;-38
2023/11/02 09:22:04;;;;;;;1.95;1.10;;;22.40;40.70;;;;;;6179108;23;20583;-39
2023/11/02 09:24:30;;;;;;;2.15;1.10;;;22.40;41.00;;;;;;6176418;23;20211;-39
2023/11/02 09:26:57;;;;;;;2.47;1.23;;;22.40;41.00;;;;;;6182368;23;20787;-39
2023/11/02 09:29:23;;;;;;;4.50;1.25;;;22.40;41.10;;;;;;6178617;23;20261;-37
2023/11/02 09:31:50;;;;;;;3.67;1.17;;;22.40;41.30;;;;;;6180593;23;20218;-38
2023/11/02 09:34:16;;;;;;;3.10;1.20;;;22.40;41.40;;;;;;6174693;23;20189;-38
2023/11/02 09:36:44;;;;;;;1.70;1.00;;;22.40;41.30;;;;;;6177912;23;20256;-41
2023/11/02 09:39:10;;;;;;;3.47;1.00;;;22.40;41.40;;;;;;6182582;23;20183;-42
2023/11/02 09:41:37;;;;;;;1.75;1.27;;;22.50;41.40;;;;;;6174079;23;20179;-41
2023/11/02 09:44:04;;;;;;;1.30;0.98;;;22.50;41.30;;;;;;6182090;23;20189;-41
2023/11/02 09:46:30;;;;;;;1.63;1.05;;;22.40;41.40;;;;;;6182398;23;20198;-42
2023/11/02 09:48:57;;;;;;;2.10;0.98;;;22.40;41.50;;;;;;6182124;23;20258;-41
2023/11/02 09:51:23;;;;;;;1.65;1.10;;;22.40;41.50;;;;;;6182760;23;20261;-41
2023/11/02 09:53:49;;;;;;;1.27;0.95;;;22.40;41.50;;;;;;6182537;23;20575;-41
2023/11/02 09:56:16;;;;;;;2.35;1.20;;;22.40;41.50;;;;;;6181329;23;20277;-43
2023/11/02 09:58:42;;;;;;;1.05;0.90;;;22.40;41.50;;;;;;6184085;23;20265;-41
2023/11/02 10:01:11;;;;;;;1.85;1.05;;;22.40;41.50;;;;;;6183513;23;20209;-42
2023/11/02 10:03:38;;;;;;;1.25;1.05;;;22.30;41.50;;;;;;6184083;23;20175;-41
2023/11/02 10:06:05;;;;;;;1.33;0.90;;;22.30;41.40;;;;;;6184614;23;20289;-41
2023/11/02 10:08:31;;;;;;;1.50;1.15;;;22.40;41.50;;;;;;6184634;23;20178;-41
2023/11/02 10:10:58;;;;;;;1.98;1.10;;;22.30;41.40;;;;;;6184076;23;20178;-41
2023/11/02 10:13:24;;;;;;;2.05;1.20;;;22.30;41.40;;;;;;6184960;23;20557;-42
2023/11/02 10:15:51;;;;;;;1.00;1.00;;;22.30;41.40;;;;;;6184293;23;20585;-41
2023/11/02 10:18:19;;;;;;;1.63;1.23;;;22.40;41.50;;;;;;6181361;23;20182;-41
2023/11/02 10:20:45;;;;;;;1.92;1.02;;;22.40;41.50;;;;;;6184469;23;20179;-41
2023/11/02 10:23:13;;;;;;;1.80;1.30;;;22.40;41.50;;;;;;6184848;23;20558;-41
2023/11/02 10:25:40;;;;;;;1.67;1.00;;;22.40;41.50;;;;;;6184284;23;20206;-41
2023/11/02 10:28:06;;;;;;;1.20;1.10;;;22.40;41.50;;;;;;6184465;23;20503;-41
2023/11/02 10:30:33;;;;;;;1.13;0.90;;;22.40;41.50;;;;;;6184574;23;20220;-41
2023/11/02 10:33:00;;;;;;;0.98;0.95;;;22.40;41.50;;;;;;6185080;23;20175;-41
2023/11/02 10:35:26;;;;;;;2.38;1.10;;;22.40;41.50;;;;;;6176631;23;20195;-41
2023/11/02 10:37:53;;;;;;;2.22;1.20;;;22.40;41.50;;;;;;6179886;23;20289;-41
2023/11/02 10:40:20;;;;;;;1.08;0.98;;;22.40;41.50;;;;;;6180910;23;20500;-42
2023/11/02 10:42:46;;;;;;;1.20;1.10;;;22.40;41.50;;;;;;6170991;23;20202;-41
2023/11/02 10:45:12;;;;;;;1.17;1.02;;;22.40;41.50;;;;;;6183392;23;20256;-39
2023/11/02 10:47:39;;;;;;;1.13;1.02;;;22.40;41.50;;;;;;6183133;23;20178;-41
2023/11/02 10:50:05;;;;;;;4.28;1.42;;;22.40;41.50;;;;;;6181956;23;20479;-42
2023/11/02 10:52:32;;;;;;;2.17;1.00;;;22.40;41.50;;;;;;6181647;23;20640;-39
2023/11/02 10:54:59;;;;;;;1.10;1.00;;;22.40;41.50;;;;;;6183736;23;20194;-38
2023/11/02 10:57:25;;;;;;;1.70;1.02;;;22.40;41.50;;;;;;6182667;23;20182;-39
2023/11/02 10:59:52;;;;;;;2.60;1.20;;;22.40;41.60;;;;;;6180611;23;20613;-40
2023/11/02 11:02:18;;;;;;;1.45;1.30;;;22.40;41.60;;;;;;6179410;23;20178;-39
2023/11/02 11:04:45;;;;;;;2.03;1.40;;;22.40;41.70;;;;;;6179502;23;20251;-40
2023/11/02 11:07:11;;;;;;;2.60;1.05;;;22.40;41.80;;;;;;6183518;23;20210;-37
2023/11/02 11:09:38;;;;;;;1.58;0.90;;;22.40;41.80;;;;;;6183506;23;20723;-40
2023/11/02 11:12:04;;;;;;;0.98;0.90;;;22.40;41.90;;;;;;6182543;23;20187;-41
2023/11/02 11:14:31;;;;;;;1.23;0.98;;;22.40;41.90;;;;;;6182392;23;20640;-40
2023/11/02 11:16:57;;;;;;;0.90;0.90;;;22.40;42.00;;;;;;6178163;23;20561;-39
2023/11/02 11:19:24;;;;;;;1.67;1.35;;;22.50;42.10;;;;;;6183367;23;20369;-37
2023/11/02 11:21:51;;;;;;;1.90;0.85;;;22.50;41.90;;;;;;6179315;23;20193;-38
2023/11/02 11:24:17;;;;;;;1.63;1.02;;;22.50;42.10;;;;;;6181500;23;20179;-41
2023/11/02 11:26:44;;;;;;;1.08;0.98;;;22.50;42.20;;;;;;6183296;23;20289;-41
2023/11/02 11:29:10;;;;;;;0.80;0.80;;;22.50;42.20;;;;;;6182424;23;20257;-40
2023/11/02 11:31:37;;;;;;;1.38;1.27;;;22.60;42.30;;;;;;6181593;23;20712;-40
2023/11/02 11:34:03;;;;;;;1.20;1.10;;;22.60;42.30;;;;;;6182741;23;20202;-39
2023/11/02 11:36:30;;;;;;;3.90;1.25;;;22.60;42.20;;;;;;6181434;23;20226;-37
2023/11/02 11:38:57;;;;;;;1.13;1.02;;;22.60;42.40;;;;;;6180633;23;20179;-37
2023/11/02 11:41:22;;;;;;;0.95;0.82;;;22.60;42.40;;;;;;6183725;23;20257;-40
2023/11/02 11:43:49;;;;;;;1.15;0.90;;;22.50;42.40;;;;;;6179966;23;20209;-38
2023/11/02 11:46:15;;;;;;;2.22;1.20;;;22.60;42.50;;;;;;6180325;23;20217;-39
2023/11/02 11:48:43;;;;;;;1.00;1.00;;;22.60;42.50;;;;;;6181040;23;20261;-39
2023/11/02 11:51:10;;;;;;;1.30;1.20;;;22.50;42.50;;;;;;6180964;23;20477;-38
2023/11/02 11:53:36;;;;;;;1.52;1.10;;;22.50;42.50;;;;;;6172159;23;20261;-40
2023/11/02 11:56:03;;;;;;;2.70;1.73;;;22.50;42.60;;;;;;6173186;23;20203;-39
2023/11/02 11:58:29;;;;;;;1.80;1.20;;;22.50;42.70;;;;;;6175708;23;20179;-39
2023/11/02 12:00:57;;;;;;;1.63;1.05;;;22.50;42.70;;;;;;6182237;23;20217;-39
2023/11/02 12:03:23;;;;;;;0.93;0.90;;;22.50;42.80;;;;;;6182614;23;20663;-39
2023/11/02 12:05:49;;;;;;;1.48;0.80;;;22.50;42.80;;;;;;6182543;23;20583;-40
2023/11/02 12:08:16;;;;;;;1.83;1.15;;;22.50;42.80;;;;;;6181056;23;20179;-39
2023/11/02 12:10:42;;;;;;;1.67;1.17;;;22.50;42.80;;;;;;6182648;23;20249;-39
2023/11/02 12:13:09;;;;;;;4.50;2.10;;;22.50;42.90;;;;;;6183194;23;20262;-38
2023/11/02 12:15:35;;;;;;;6.63;3.30;;;22.50;42.90;;;;;;6179654;23;20229;-37
2023/11/02 12:18:02;;;;;;;24.85;6.93;;;22.50;42.80;;;;;;6171754;23;20174;-38
2023/11/02 12:20:29;;;;;;;20.17;6.43;;;22.50;42.80;;;;;;6179900;23;20190;-38
2023/11/02 12:22:55;;;;;;;18.15;6.53;;;22.50;43.00;;;;;;6183204;23;20182;-40
2023/11/02 12:25:22;;;;;;;16.90;7.22;;;22.50;43.10;;;;;;6181378;23;20249;-39
2023/11/02 12:27:48;;;;;;;17.02;7.18;;;22.50;43.70;;;;;;6182242;23;20256;-40
2023/11/02 12:30:15;;;;;;;20.05;7.95;;;22.50;43.40;;;;;;6181746;23;20536;-39
2023/11/02 12:32:41;;;;;;;14.52;6.72;;;22.50;43.30;;;;;;6183295;23;20253;-39
2023/11/02 12:35:08;;;;;;;18.33;6.03;;;22.50;43.30;;;;;;6180166;23;20207;-39
2023/11/02 12:37:34;;;;;;;16.42;6.40;;;22.50;43.30;;;;;;6182044;23;20179;-39
2023/11/02 12:40:02;;;;;;;21.23;7.53;;;22.50;43.40;;;;;;6178431;23;20339;-38